createdAt,value
2022-11-14T00:01:33.354Z,99408.63
2022-11-14T00:04:02.329Z,99401.91
2022-11-14T00:06:30.256Z,99413.06
2022-11-14T00:08:58.180Z,99413.06
2022-11-14T00:11:26.259Z,99409.66
2022-11-14T00:13:54.194Z,99418.22
2022-11-14T00:16:22.144Z,99414.91
2022-11-14T00:18:50.499Z,99409.75
2022-11-14T00:21:18.464Z,99414.81
2022-11-14T00:23:46.367Z,99414.00
2022-11-14T00:26:17.072Z,99420.00
2022-11-14T00:28:45.080Z,99418.22
2022-11-14T00:31:13.114Z,99420.81
2022-11-14T00:33:42.789Z,99420.81
2022-11-14T00:36:10.771Z,99413.06
2022-11-14T00:38:38.843Z,99417.31
2022-11-14T00:41:08.912Z,99420.00
2022-11-14T00:43:36.950Z,99417.41
2022-11-14T00:46:04.971Z,99424.31
2022-11-14T00:48:33.103Z,99423.50
2022-11-14T00:51:01.046Z,99423.50
2022-11-14T00:53:29.043Z,99410.28
2022-11-14T00:55:58.167Z,99414.91
2022-11-14T00:58:26.216Z,99415.94
2022-11-14T01:00:54.925Z,99419.16
2022-11-14T01:03:23.267Z,99423.50
2022-11-14T01:05:52.209Z,99419.16
2022-11-14T01:08:21.190Z,99424.31
2022-11-14T01:10:52.122Z,99417.50
2022-11-14T01:13:20.431Z,99426.06
2022-11-14T01:15:50.554Z,99414.09
2022-11-14T01:18:23.314Z,99426.91
2022-11-14T01:20:51.287Z,99420.00
2022-11-14T01:23:19.517Z,99408.28
2022-11-14T01:25:47.766Z,99420.09
2022-11-14T01:28:19.003Z,99418.22
2022-11-14T01:30:47.390Z,99416.56
2022-11-14T01:33:15.543Z,99408.00
2022-11-14T01:35:43.917Z,99425.25
2022-11-14T01:38:15.526Z,99423.59
2022-11-14T01:40:48.149Z,99415.00
2022-11-14T01:43:19.236Z,99417.59
2022-11-14T01:45:57.099Z,99421.00
2022-11-14T01:48:38.256Z,99430.50
2022-11-14T01:51:22.904Z,99433.09
2022-11-14T01:53:54.631Z,99438.25
2022-11-14T01:56:47.496Z,99424.69
2022-11-14T01:59:22.333Z,99437.34
2022-11-14T02:01:53.354Z,99443.41
2022-11-14T02:04:34.320Z,99436.50
2022-11-14T02:07:06.471Z,99439.19
2022-11-14T02:09:39.762Z,99432.25
2022-11-14T02:12:13.011Z,99433.19
2022-11-14T02:14:43.336Z,99437.34
2022-11-14T02:20:11.757Z,99428.75
2022-11-14T02:22:41.347Z,99427.81
2022-11-14T02:25:10.821Z,99430.31
2022-11-14T02:27:41.426Z,99435.56
2022-11-14T02:30:13.636Z,99437.25
2022-11-14T02:35:31.222Z,99435.47
2022-11-14T02:37:59.222Z,99430.22
2022-11-14T02:40:27.171Z,99426.81
2022-11-14T02:42:56.117Z,99433.63
2022-11-14T02:45:24.427Z,99432.63
2022-11-14T02:47:52.319Z,99436.03
2022-11-14T02:50:20.488Z,99429.31
2022-11-14T02:52:48.439Z,99429.94
2022-11-14T02:55:16.486Z,99439.63
2022-11-14T02:57:44.599Z,99420.63
2022-11-14T03:00:15.155Z,99426.53
2022-11-14T03:02:43.641Z,99432.06
2022-11-14T03:05:11.869Z,99426.78
2022-11-14T03:07:39.929Z,99427.63
2022-11-14T03:10:10.367Z,99420.59
2022-11-14T03:12:38.869Z,99426.59
2022-11-14T03:15:08.591Z,99434.16
2022-11-14T03:17:36.697Z,99424.56
2022-11-14T03:20:05.106Z,99413.69
2022-11-14T03:22:33.365Z,99408.41
2022-11-14T03:25:01.557Z,99425.19
2022-11-14T03:27:31.414Z,99412.28
2022-11-14T03:30:01.029Z,99405.75
2022-11-14T03:32:29.917Z,99423.44
2022-11-14T03:34:57.931Z,99414.84
2022-11-14T03:37:28.036Z,99413.19
2022-11-14T03:39:56.039Z,99400.56
2022-11-14T03:42:23.977Z,99412.19
2022-11-14T03:44:52.125Z,99401.75
2022-11-14T03:47:20.115Z,99413.75
2022-11-14T03:49:48.121Z,99408.47
2022-11-14T03:52:16.373Z,99404.97
2022-11-14T03:54:44.374Z,99399.81
2022-11-14T03:57:12.371Z,99387.16
2022-11-14T03:59:41.459Z,99391.31
2022-11-14T04:02:09.625Z,99409.00
2022-11-14T04:04:37.650Z,99402.09
2022-11-14T04:07:06.014Z,99390.94
2022-11-14T04:09:33.923Z,99402.91
2022-11-14T04:12:02.006Z,99408.00
2022-11-14T04:14:33.056Z,99409.75
2022-11-14T04:17:01.768Z,99408.91
2022-11-14T04:19:31.535Z,99403.94
2022-11-14T04:21:59.755Z,99406.88
2022-11-14T04:24:27.741Z,99407.63
2022-11-14T04:26:55.767Z,99400.72
2022-11-14T04:29:25.191Z,99404.03
2022-11-14T04:31:53.234Z,99398.66
2022-11-14T04:34:21.179Z,99401.34
2022-11-14T04:36:53.070Z,99387.88
2022-11-14T04:39:21.074Z,99398.13
2022-11-14T04:41:49.087Z,99407.16
2022-11-14T04:44:17.121Z,99398.47
2022-11-14T04:46:45.154Z,99398.47
2022-11-14T04:49:13.233Z,99401.88
2022-11-14T04:51:41.353Z,99389.16
2022-11-14T04:54:09.392Z,99401.38
2022-11-14T04:56:37.488Z,99397.66
2022-11-14T04:59:05.573Z,99399.34
2022-11-14T05:01:33.649Z,99392.50
2022-11-14T05:04:01.724Z,99386.50
2022-11-14T05:06:29.898Z,99379.25
2022-11-14T05:08:57.957Z,99386.69
2022-11-14T05:11:29.167Z,99382.47
2022-11-14T05:13:57.695Z,99380.38
2022-11-14T05:16:25.819Z,99387.09
2022-11-14T05:18:56.520Z,99368.19
2022-11-14T05:21:25.503Z,99388.13
2022-11-14T05:23:53.609Z,99376.97
2022-11-14T05:26:21.760Z,99381.41
2022-11-14T05:28:49.899Z,99385.72
2022-11-14T05:31:18.558Z,99375.69
2022-11-14T05:33:49.951Z,99366.00
2022-11-14T05:36:20.933Z,99395.44
2022-11-14T05:38:48.889Z,99366.75
2022-11-14T05:41:18.992Z,99379.47
2022-11-14T05:43:47.973Z,99383.91
2022-11-14T05:46:17.685Z,99384.84
2022-11-14T05:48:45.413Z,99372.63
2022-11-14T05:51:14.959Z,99378.63
2022-11-14T05:53:43.141Z,99379.47
2022-11-14T05:56:13.274Z,99376.88
2022-11-14T05:58:41.480Z,99377.72
2022-11-14T06:01:13.391Z,99378.38
2022-11-14T06:03:43.844Z,99376.53
2022-11-14T06:06:15.108Z,99383.44
2022-11-14T06:08:43.921Z,99385.09
2022-11-14T06:11:15.812Z,99371.88
2022-11-14T06:13:44.601Z,99366.81
2022-11-14T06:16:15.179Z,99373.34
2022-11-14T06:18:44.423Z,99377.59
2022-11-14T06:21:20.417Z,99380.16
2022-11-14T06:23:50.450Z,99386.28
2022-11-14T06:26:23.276Z,99382.84
2022-11-14T06:28:53.051Z,99384.72
2022-11-14T06:31:22.679Z,99383.88
2022-11-14T06:33:53.696Z,99378.06
2022-11-14T06:36:21.734Z,99374.09
2022-11-14T06:38:49.718Z,99371.72
2022-11-14T06:41:22.133Z,99351.00
2022-11-14T06:43:53.735Z,99364.78
2022-11-14T06:46:23.391Z,99367.28
2022-11-14T06:48:53.102Z,99374.09
2022-11-14T06:51:20.821Z,99367.22
2022-11-14T06:53:48.942Z,99369.84
2022-11-14T06:56:18.775Z,99363.03
2022-11-14T06:58:49.107Z,99365.53
2022-11-14T07:01:22.643Z,99363.88
2022-11-14T07:03:51.467Z,99357.88
2022-11-14T07:06:27.432Z,99353.63
2022-11-14T07:08:57.359Z,99359.63
2022-11-14T07:11:29.972Z,99370.06
2022-11-14T07:14:03.023Z,99329.06
2022-11-14T07:16:33.889Z,99357.34
2022-11-14T07:19:03.865Z,99317.66
2022-11-14T07:21:36.780Z,99359.28
2022-11-14T07:24:05.019Z,99350.91
2022-11-14T07:26:33.133Z,99365.56
2022-11-14T07:29:02.947Z,99344.38
2022-11-14T07:31:31.495Z,99343.84
2022-11-14T07:33:59.567Z,99354.81
2022-11-14T07:36:27.652Z,99350.56
2022-11-14T07:38:55.747Z,99353.97
2022-11-14T07:41:23.864Z,99352.31
2022-11-14T07:43:52.782Z,99350.56
2022-11-14T07:46:20.733Z,99350.03
2022-11-14T07:48:48.837Z,99352.50
2022-11-14T07:51:20.594Z,99362.00
2022-11-14T07:53:48.784Z,99374.00
2022-11-14T07:56:18.021Z,99368.84
2022-11-14T07:58:46.186Z,99372.25
2022-11-14T08:01:15.410Z,99374.75
2022-11-14T08:03:46.239Z,99373.81
2022-11-14T08:06:17.333Z,99363.03
2022-11-14T08:08:45.602Z,99359.63
2022-11-14T08:11:15.134Z,99379.06
2022-11-14T08:13:52.534Z,99372.25
2022-11-14T08:16:20.412Z,99376.69
2022-11-14T08:18:48.280Z,99376.78
2022-11-14T08:21:17.230Z,99376.97
2022-11-14T08:23:46.006Z,99384.00
2022-11-14T08:26:15.467Z,99379.84
2022-11-14T08:28:44.521Z,99381.50
2022-11-14T08:31:14.308Z,99374.69
2022-11-14T08:33:42.282Z,99375.69
2022-11-14T08:36:12.491Z,99366.19
2022-11-14T08:38:40.446Z,99369.69
2022-11-14T08:41:08.501Z,99318.91
2022-11-14T08:43:36.665Z,99368.25
2022-11-14T08:46:06.091Z,99362.44
2022-11-14T08:48:34.547Z,99354.78
2022-11-14T08:51:08.494Z,99356.53
2022-11-14T08:53:36.590Z,99360.19
2022-11-14T08:56:04.713Z,99361.22
2022-11-14T08:58:33.838Z,99363.16
2022-11-14T09:01:04.254Z,99356.72
2022-11-14T09:03:32.473Z,99353.50
2022-11-14T09:06:02.294Z,99352.78
2022-11-14T09:08:32.244Z,99358.94
2022-11-14T09:11:06.019Z,99360.97
2022-11-14T09:13:36.315Z,99362.28
2022-11-14T09:16:04.376Z,99357.22
2022-11-14T09:18:33.730Z,99353.91
2022-11-14T09:21:02.897Z,99351.41
2022-11-14T09:23:31.268Z,99354.91
2022-11-14T09:26:05.353Z,99346.44
2022-11-14T09:28:34.368Z,99362.94
2022-11-14T09:31:04.872Z,99349.38
2022-11-14T09:33:34.185Z,99347.88
2022-11-14T09:36:06.498Z,99350.66
2022-11-14T09:38:38.426Z,99346.41
2022-11-14T09:41:11.136Z,99346.50
2022-11-14T09:44:17.743Z,99342.25
2022-11-14T09:46:59.246Z,99350.09
2022-11-14T09:49:42.297Z,99351.94
2022-11-14T09:52:16.455Z,99345.28
2022-11-14T09:54:55.241Z,99341.06
2022-11-14T09:57:23.446Z,99338.66
2022-11-14T09:59:53.335Z,99338.56
2022-11-14T10:02:53.143Z,99339.59
2022-11-14T10:05:46.313Z,99324.19
2022-11-14T10:08:29.316Z,99325.50
2022-11-14T10:11:18.472Z,99318.41
2022-11-14T10:14:09.518Z,99326.97
2022-11-14T10:16:51.273Z,99312.78
2022-11-14T10:19:55.331Z,99313.25
2022-11-14T10:22:29.429Z,99306.50
2022-11-14T10:25:00.117Z,99299.78
2022-11-14T10:27:58.506Z,99303.28
2022-11-14T10:30:42.351Z,99293.06
2022-11-14T10:33:42.244Z,99295.75
2022-11-14T10:36:47.067Z,99293.34
2022-11-14T10:39:41.236Z,99308.91
2022-11-14T10:42:18.040Z,99312.31
2022-11-14T10:45:18.617Z,99307.91
2022-11-14T10:48:11.356Z,99304.41
2022-11-14T10:51:23.399Z,99292.34
2022-11-14T10:54:01.285Z,99291.41
2022-11-14T10:56:31.096Z,99293.06
2022-11-14T10:58:59.159Z,99285.59
2022-11-14T11:02:05.223Z,99292.97
2022-11-14T11:04:37.985Z,99278.44
2022-11-14T11:07:09.018Z,99285.97
2022-11-14T11:09:58.375Z,99277.41
2022-11-14T11:12:39.090Z,99253.00
2022-11-14T11:15:25.352Z,99271.16
2022-11-14T11:18:03.271Z,99269.41
2022-11-14T11:20:37.194Z,99265.91
2022-11-14T11:23:08.005Z,99268.47
2022-11-14T11:25:37.568Z,99258.25
2022-11-14T11:28:14.851Z,99259.81
2022-11-14T11:31:03.815Z,99257.16
2022-11-14T11:33:37.006Z,99254.75
2022-11-14T11:36:21.309Z,99248.75
2022-11-14T11:38:51.749Z,99252.00
2022-11-14T11:44:23.068Z,99244.16
2022-11-14T11:46:58.495Z,99240.66
2022-11-14T11:49:51.746Z,99237.16
2022-11-14T11:52:35.336Z,99216.81
2022-11-14T11:55:19.186Z,99223.34
2022-11-14T11:57:52.504Z,99207.41
2022-11-14T12:00:22.544Z,99214.75
2022-11-14T12:02:54.899Z,99201.88
2022-11-14T12:05:41.560Z,99213.75
2022-11-14T12:08:24.152Z,99210.97
2022-11-14T12:10:54.929Z,99210.97
2022-11-14T12:14:03.206Z,99202.31
2022-11-14T12:16:56.533Z,99209.97
2022-11-14T12:19:41.281Z,99200.47
2022-11-14T12:22:41.630Z,99190.88
2022-11-14T12:25:33.591Z,99198.63
2022-11-14T12:28:21.019Z,99189.13
2022-11-14T12:30:55.230Z,99189.03
2022-11-14T12:33:37.795Z,99182.94
2022-11-14T12:36:12.545Z,99174.19
2022-11-14T12:38:53.814Z,99175.84
2022-11-14T12:41:38.812Z,99175.78
2022-11-14T12:44:29.308Z,99167.94
2022-11-14T12:47:08.226Z,99163.50
2022-11-14T12:49:49.526Z,99168.56
2022-11-14T12:52:43.739Z,99162.50
2022-11-14T12:55:27.108Z,99157.31
2022-11-14T12:58:16.607Z,99158.06
2022-11-14T13:00:47.668Z,99157.97
2022-11-14T13:03:42.005Z,99158.78
2022-11-14T13:06:25.694Z,99163.84
2022-11-14T13:09:03.005Z,99152.59
2022-11-14T13:11:58.630Z,99152.50
2022-11-14T13:14:45.303Z,99149.81
2022-11-14T13:17:37.947Z,99145.50
2022-11-14T13:20:48.811Z,99148.81
2022-11-14T13:23:28.980Z,99140.13
2022-11-14T13:26:13.254Z,99134.03
2022-11-14T13:28:54.502Z,99125.38
2022-11-14T13:31:27.819Z,99137.25
2022-11-14T13:34:01.263Z,99134.69
2022-11-14T13:36:47.907Z,99124.25
2022-11-14T13:39:36.135Z,99111.25
2022-11-14T13:42:32.572Z,99111.03
2022-11-14T13:45:24.585Z,99107.53
2022-11-14T13:48:14.078Z,99108.25
2022-11-14T13:50:43.942Z,99103.94
2022-11-14T13:53:19.766Z,99082.34
2022-11-14T13:56:05.730Z,99090.81
2022-11-14T13:58:42.900Z,99078.63
2022-11-14T14:01:33.033Z,99081.13
2022-11-14T14:04:26.815Z,99069.75
2022-11-14T14:07:05.296Z,99065.31
2022-11-14T14:10:02.644Z,99061.81
2022-11-14T14:12:42.788Z,99059.94
2022-11-14T14:15:33.354Z,99048.69
2022-11-14T14:18:25.028Z,99045.19
2022-11-14T14:21:07.027Z,99043.34
2022-11-14T14:23:55.893Z,99041.59
2022-11-14T14:26:47.907Z,99037.16
2022-11-14T14:29:40.180Z,99025.91
2022-11-14T14:32:19.672Z,99016.72
2022-11-14T14:34:48.787Z,99016.28
2022-11-14T14:37:23.438Z,99007.72
2022-11-14T14:40:04.062Z,99023.72
2022-11-14T14:42:39.816Z,99009.25
2022-11-14T14:45:20.303Z,99013.91
2022-11-14T14:47:52.123Z,99015.56
2022-11-14T14:50:28.945Z,99013.69
2022-11-14T14:53:00.275Z,98990.75
2022-11-14T14:55:33.255Z,98990.25
2022-11-14T14:58:23.667Z,98993.44
2022-11-14T15:00:56.870Z,98983.94
2022-11-14T15:03:32.819Z,98985.25
2022-11-14T15:06:06.871Z,98985.88
2022-11-14T15:08:40.263Z,98976.25
2022-11-14T15:11:08.678Z,98970.16
2022-11-14T15:13:39.315Z,98977.81
2022-11-14T15:16:09.286Z,98958.28
2022-11-14T15:18:38.092Z,98964.56
2022-11-14T15:21:22.184Z,98960.22
2022-11-14T15:24:19.727Z,98944.31
2022-11-14T15:26:50.617Z,98949.88
2022-11-14T15:29:28.863Z,98935.19
2022-11-14T15:32:00.132Z,98940.38
2022-11-14T15:34:34.971Z,98921.56
2022-11-14T15:37:19.654Z,98929.31
2022-11-14T15:39:49.232Z,98918.16
2022-11-14T15:42:29.861Z,98918.25
2022-11-14T15:44:57.937Z,98913.91
2022-11-14T15:47:31.578Z,98919.09
2022-11-14T15:50:07.829Z,98905.34
2022-11-14T15:52:52.922Z,98898.41
2022-11-14T15:55:25.835Z,98899.34
2022-11-14T15:58:20.958Z,98891.50
2022-11-14T16:00:56.183Z,98883.75
2022-11-14T16:03:24.852Z,98872.19
2022-11-14T16:05:52.837Z,98876.09
2022-11-14T16:08:21.017Z,98871.47
2022-11-14T16:10:49.055Z,98876.44
2022-11-14T16:13:17.112Z,98871.97
2022-11-14T16:15:45.272Z,98880.56
2022-11-14T16:18:13.588Z,98864.22
2022-11-14T16:20:42.695Z,98854.81
2022-11-14T16:23:18.841Z,98856.59
2022-11-14T16:25:46.830Z,98839.28
2022-11-14T16:28:14.782Z,98840.59
2022-11-14T16:30:42.951Z,98826.97
2022-11-14T16:33:10.980Z,98832.00
2022-11-14T16:35:39.004Z,98833.06
2022-11-14T16:38:07.098Z,98828.81
2022-11-14T16:40:35.097Z,98810.69
2022-11-14T16:43:04.144Z,98822.13
2022-11-14T16:45:32.301Z,98803.09
2022-11-14T16:48:00.295Z,98794.53
2022-11-14T16:50:28.237Z,98791.94
2022-11-14T16:52:56.345Z,98786.78
2022-11-14T16:55:24.380Z,98772.44
2022-11-14T16:57:52.384Z,98769.75
2022-11-14T17:00:23.835Z,98775.75
2022-11-14T17:02:51.800Z,98779.16
2022-11-14T17:05:19.809Z,98768.00
2022-11-14T17:07:48.154Z,98762.00
2022-11-14T17:10:16.180Z,98757.66
2022-11-14T17:12:44.468Z,98754.97
2022-11-14T17:15:14.143Z,98741.94
2022-11-14T17:17:41.825Z,98744.41
2022-11-14T17:20:11.432Z,98728.44
2022-11-14T17:22:42.133Z,98725.41
2022-11-14T17:25:11.171Z,98718.69
2022-11-14T17:27:39.140Z,98711.31
2022-11-14T17:30:10.312Z,98719.88
2022-11-14T17:32:38.410Z,98714.59
2022-11-14T17:35:06.897Z,98709.22
2022-11-14T17:37:38.390Z,98709.09
2022-11-14T17:40:10.218Z,98693.00
2022-11-14T17:42:42.377Z,98695.72
2022-11-14T17:45:10.820Z,98686.69
2022-11-14T17:47:38.906Z,98688.97
2022-11-14T17:50:07.387Z,98674.75
2022-11-14T17:52:35.667Z,98627.47
2022-11-14T17:55:03.862Z,98671.47
2022-11-14T17:57:31.997Z,98673.69
2022-11-14T18:00:00.898Z,98667.47
2022-11-14T18:02:32.654Z,98652.66
2022-11-14T18:05:00.571Z,98649.97
2022-11-14T18:07:32.741Z,98642.22
2022-11-14T18:10:00.744Z,98639.38
2022-11-14T18:12:28.849Z,98645.03
2022-11-14T18:14:58.917Z,98630.69
2022-11-14T18:17:27.888Z,98625.41
2022-11-14T18:19:57.172Z,98634.09
2022-11-14T18:22:25.474Z,98623.75
2022-11-14T18:24:55.799Z,98620.34
2022-11-14T18:27:23.761Z,98623.06
2022-11-14T18:29:52.598Z,98622.13
2022-11-14T18:32:20.681Z,98604.03
2022-11-14T18:34:48.676Z,98602.03
2022-11-14T18:37:17.652Z,98599.31
2022-11-14T18:39:45.513Z,98597.56
2022-11-14T18:42:13.489Z,98597.31
2022-11-14T18:44:42.578Z,98597.06
2022-11-14T18:47:10.623Z,98590.03
2022-11-14T18:49:38.644Z,98580.25
2022-11-14T18:52:15.672Z,98549.72
2022-11-14T18:54:45.452Z,98561.22
2022-11-14T18:57:13.475Z,98578.38
2022-11-14T18:59:42.488Z,98572.50
2022-11-14T19:02:10.521Z,98562.28
2022-11-14T19:04:38.518Z,98564.75
2022-11-14T19:07:06.795Z,98549.94
2022-11-14T19:09:34.817Z,98538.75
2022-11-14T19:12:24.896Z,98542.16
2022-11-14T19:14:53.580Z,98538.66
2022-11-14T19:17:22.962Z,98527.59
2022-11-14T19:19:55.274Z,98529.38
2022-11-14T19:22:23.235Z,98519.03
2022-11-14T19:24:51.243Z,98504.00
2022-11-14T19:27:21.088Z,98530.88
2022-11-14T19:29:48.760Z,98515.38
2022-11-14T19:32:16.737Z,98509.25
2022-11-14T19:34:46.347Z,98471.50
2022-11-14T19:37:14.086Z,98516.78
2022-11-14T19:39:42.051Z,98506.56
2022-11-14T19:42:11.011Z,98500.44
2022-11-14T19:44:39.001Z,98492.44
2022-11-14T19:47:47.383Z,98507.00
2022-11-14T19:50:16.821Z,98497.47
2022-11-14T19:52:44.779Z,98487.03
2022-11-14T19:55:12.909Z,98484.22
2022-11-14T19:57:40.866Z,98495.13
2022-11-14T20:00:09.519Z,98496.78
2022-11-14T20:02:41.259Z,98479.03
2022-11-14T20:05:09.699Z,98481.94
2022-11-14T20:07:38.360Z,98478.41
2022-11-14T20:10:07.032Z,98471.59
2022-11-14T20:12:35.566Z,98479.13
2022-11-14T20:15:03.709Z,98474.19
2022-11-14T20:17:34.460Z,98465.09
2022-11-14T20:20:02.520Z,98470.16
2022-11-14T20:22:31.080Z,98458.75
2022-11-14T20:24:59.409Z,98475.78
2022-11-14T20:27:31.730Z,98467.06
2022-11-14T20:29:59.693Z,98462.59
2022-11-14T20:32:27.964Z,98467.63
2022-11-14T20:34:55.946Z,98461.53
2022-11-14T20:37:23.862Z,98445.88
2022-11-14T20:39:52.057Z,98444.78
2022-11-14T20:42:19.950Z,98449.97
2022-11-14T20:44:47.953Z,98448.19
2022-11-14T20:47:18.408Z,98437.97
2022-11-14T20:49:47.486Z,98427.38
2022-11-14T20:52:16.729Z,98425.47
2022-11-14T20:54:45.675Z,98422.91
2022-11-14T20:57:13.670Z,98428.06
2022-11-14T20:59:42.234Z,98425.47
2022-11-14T21:02:14.146Z,98419.38
2022-11-14T21:04:42.281Z,98424.53
2022-11-14T21:07:10.480Z,98404.22
2022-11-14T21:09:40.337Z,98420.06
2022-11-14T21:12:08.511Z,98422.78
2022-11-14T21:14:36.490Z,98415.00
2022-11-14T21:17:05.414Z,98411.84
2022-11-14T21:19:33.385Z,98411.03
2022-11-14T21:22:01.277Z,98415.50
2022-11-14T21:24:33.562Z,98403.66
2022-11-14T21:27:07.323Z,98406.13
2022-11-14T21:29:36.462Z,98403.53
2022-11-14T21:32:04.566Z,98404.34
2022-11-14T21:34:34.556Z,98394.81
2022-11-14T21:37:03.504Z,98399.16
2022-11-14T21:39:31.427Z,98396.16
2022-11-14T21:41:59.331Z,98401.50
2022-11-14T21:44:29.041Z,98400.69
2022-11-14T21:46:56.740Z,98385.72
2022-11-14T21:49:24.699Z,98407.25
2022-11-14T21:51:54.065Z,98391.84
2022-11-14T21:54:21.998Z,98395.25
2022-11-14T21:56:49.908Z,98378.09
2022-11-14T21:59:22.286Z,98389.81
2022-11-14T22:02:10.886Z,98386.41
2022-11-14T22:04:39.202Z,98376.75
2022-11-14T22:07:09.009Z,98388.75
2022-11-14T22:09:42.569Z,98379.34
2022-11-14T22:12:16.557Z,98388.19
2022-11-14T22:14:44.541Z,98381.25
2022-11-14T22:17:12.623Z,98397.59
2022-11-14T22:19:40.852Z,98384.72
2022-11-14T22:22:09.072Z,98392.41
2022-11-14T22:24:37.116Z,98394.88
2022-11-14T22:27:06.650Z,98392.28
2022-11-14T22:29:34.717Z,98399.09
2022-11-14T22:32:03.641Z,98398.72
2022-11-14T22:34:32.590Z,98400.47
2022-11-14T22:37:00.605Z,98398.03
2022-11-14T22:39:28.623Z,98404.97
2022-11-14T22:41:56.802Z,98406.72
2022-11-14T22:44:24.793Z,98403.31
2022-11-14T22:46:52.771Z,98405.78
2022-11-14T22:49:21.363Z,98405.66
2022-11-14T22:51:49.540Z,98410.97
2022-11-14T22:54:17.569Z,98414.63
2022-11-14T22:56:47.192Z,98424.72
2022-11-14T22:59:14.807Z,98429.78
2022-11-14T23:01:42.898Z,98422.00
2022-11-14T23:04:11.131Z,98428.50
2022-11-14T23:06:39.194Z,98433.19
2022-11-14T23:09:07.195Z,98431.66
2022-11-14T23:11:36.138Z,98431.41
2022-11-14T23:14:04.179Z,98432.59
2022-11-14T23:16:34.431Z,98436.00
2022-11-14T23:19:05.338Z,98438.03
2022-11-14T23:21:36.176Z,98443.09
2022-11-14T23:24:11.191Z,98430.97
2022-11-14T23:26:39.255Z,98442.97
2022-11-14T23:29:07.291Z,98427.94
2022-11-14T23:31:37.252Z,98443.91
2022-11-14T23:34:06.441Z,98452.50
2022-11-14T23:36:34.428Z,98443.09
2022-11-14T23:39:02.498Z,98441.31
2022-11-14T23:41:31.599Z,98443.91
2022-11-14T23:43:59.647Z,98440.50
2022-11-14T23:46:27.561Z,98448.25
2022-11-14T23:48:57.489Z,98449.59
2022-11-14T23:51:25.520Z,98442.78
2022-11-14T23:53:53.510Z,98443.22
2022-11-14T23:56:21.642Z,98453.56
2022-11-14T23:58:49.581Z,98446.75
